createdAt,value
2017-04-17T00:00:06.667Z,5.5
2017-04-17T00:01:09.075Z,5.5
2017-04-17T00:02:11.492Z,5.4
2017-04-17T00:03:13.912Z,5.3
2017-04-17T00:04:16.312Z,5.2
2017-04-17T00:05:18.879Z,5.2
2017-04-17T00:06:21.367Z,5.2
2017-04-17T00:07:23.807Z,5.1
2017-04-17T00:08:26.237Z,5.2
2017-04-17T00:09:28.681Z,5.2
2017-04-17T00:10:31.117Z,5.2
2017-04-17T00:11:33.507Z,5.2
2017-04-17T00:12:35.872Z,5.2
2017-04-17T00:13:38.328Z,5.3
2017-04-17T00:14:40.753Z,5.3
2017-04-17T00:15:43.127Z,5.3
2017-04-17T00:16:45.548Z,5.3
2017-04-17T00:17:47.967Z,5.3
2017-04-17T00:18:50.372Z,5.3
2017-04-17T00:19:52.837Z,5.3
2017-04-17T00:20:55.252Z,5.3
2017-04-17T00:21:57.678Z,5.3
2017-04-17T00:23:00.128Z,5.2
2017-04-17T00:24:02.616Z,5.2
2017-04-17T00:25:05.233Z,5.2
2017-04-17T00:26:07.675Z,5.1
2017-04-17T00:27:10.176Z,5.1
2017-04-17T00:28:12.653Z,5.1
2017-04-17T00:29:15.054Z,5
2017-04-17T00:30:17.496Z,4.9
2017-04-17T00:31:19.861Z,4.8
2017-04-17T00:32:22.262Z,4.8
2017-04-17T00:33:24.734Z,4.8
2017-04-17T00:34:27.205Z,4.8
2017-04-17T00:35:29.669Z,4.8
2017-04-17T00:36:32.124Z,4.8
2017-04-17T00:37:34.566Z,4.7
2017-04-17T00:38:37.023Z,4.8
2017-04-17T00:39:39.462Z,4.8
2017-04-17T00:40:41.911Z,4.8
2017-04-17T00:41:44.298Z,4.8
2017-04-17T00:42:46.674Z,4.8
2017-04-17T00:43:49.091Z,4.7
2017-04-17T00:44:51.751Z,4.7
2017-04-17T00:45:54.135Z,4.8
2017-04-17T00:46:56.560Z,4.8
2017-04-17T00:47:58.973Z,4.8
2017-04-17T00:49:01.391Z,4.8
2017-04-17T00:50:03.774Z,4.8
2017-04-17T00:51:06.155Z,4.8
2017-04-17T00:52:08.603Z,4.8
2017-04-17T00:53:11.098Z,4.7
2017-04-17T00:54:13.504Z,4.8
2017-04-17T00:55:15.923Z,4.8
2017-04-17T00:56:18.330Z,4.8
2017-04-17T00:57:20.805Z,4.8
2017-04-17T00:58:23.248Z,4.8
2017-04-17T00:59:25.853Z,4.8
2017-04-17T01:00:28.290Z,4.9
2017-04-17T01:01:30.679Z,4.8
2017-04-17T01:02:33.046Z,4.8
2017-04-17T01:03:35.462Z,4.8
2017-04-17T01:04:37.840Z,4.9
2017-04-17T01:05:40.237Z,4.9
2017-04-17T01:06:42.602Z,5
2017-04-17T01:07:45.007Z,4.9
2017-04-17T01:08:47.462Z,4.9
2017-04-17T01:09:49.909Z,4.9
2017-04-17T01:10:52.301Z,4.9
2017-04-17T01:11:54.704Z,4.9
2017-04-17T01:12:57.114Z,4.9
2017-04-17T01:13:59.506Z,4.9
2017-04-17T01:15:01.874Z,4.9
2017-04-17T01:16:04.327Z,4.9
2017-04-17T01:17:06.756Z,4.9
2017-04-17T01:18:09.154Z,4.9
2017-04-17T01:19:11.541Z,4.9
2017-04-17T01:20:13.979Z,4.9
2017-04-17T01:21:16.404Z,4.9
2017-04-17T01:22:18.783Z,4.8
2017-04-17T01:23:21.188Z,4.8
2017-04-17T01:24:23.657Z,4.8
2017-04-17T01:25:26.165Z,4.7
2017-04-17T01:26:29.536Z,4.8
2017-04-17T01:27:32.505Z,4.9
2017-04-17T01:28:35.186Z,4.9
2017-04-17T01:29:37.605Z,4.9
2017-04-17T01:30:40.001Z,4.8
2017-04-17T01:31:42.412Z,4.8
2017-04-17T01:32:44.798Z,4.9
2017-04-17T01:33:47.186Z,5
2017-04-17T01:34:49.569Z,5.1
2017-04-17T01:35:51.994Z,5.1
2017-04-17T01:36:54.357Z,5.1
2017-04-17T01:37:56.721Z,5.1
2017-04-17T01:38:59.134Z,5
2017-04-17T01:40:01.566Z,5
2017-04-17T01:41:03.944Z,4.7
2017-04-17T01:42:06.317Z,4.6
2017-04-17T01:43:08.779Z,4.7
2017-04-17T01:44:11.165Z,4.8
2017-04-17T01:45:13.582Z,4.8
2017-04-17T01:46:16.024Z,4.7
2017-04-17T01:47:18.477Z,4.8
2017-04-17T01:48:20.883Z,4.8
2017-04-17T01:49:23.279Z,4.6
2017-04-17T01:50:25.668Z,4.6
2017-04-17T01:51:28.114Z,4.7
2017-04-17T01:52:30.494Z,4.8
2017-04-17T01:53:32.841Z,4.9
2017-04-17T01:54:35.258Z,5
2017-04-17T01:55:37.682Z,5
2017-04-17T01:56:40.087Z,5
2017-04-17T01:57:42.526Z,5
2017-04-17T01:58:44.980Z,5.1
2017-04-17T01:59:47.383Z,5.1
2017-04-17T02:00:49.761Z,5.1
2017-04-17T02:01:52.135Z,5.1
2017-04-17T02:02:54.549Z,5
2017-04-17T02:03:56.947Z,5
2017-04-17T02:04:59.396Z,5
2017-04-17T02:06:01.831Z,5.1
2017-04-17T02:07:04.216Z,5.1
2017-04-17T02:08:06.613Z,5.2
2017-04-17T02:09:09.072Z,5.1
2017-04-17T02:10:20.535Z,5.1
2017-04-17T02:11:23.062Z,5.2
2017-04-17T02:12:25.480Z,5.2
2017-04-17T02:13:27.945Z,5.1
2017-04-17T02:14:30.378Z,5.2
2017-04-17T02:15:33.067Z,5.2
2017-04-17T02:16:35.509Z,5.1
2017-04-17T02:17:38.016Z,5.1
2017-04-17T02:18:40.422Z,5.1
2017-04-17T02:19:42.886Z,5.1
2017-04-17T02:20:45.288Z,5.1
2017-04-17T02:21:47.692Z,5.1
2017-04-17T02:22:50.129Z,4.9
2017-04-17T02:23:52.568Z,5.1
2017-04-17T02:24:54.994Z,5.1
2017-04-17T02:25:57.459Z,5.2
2017-04-17T02:26:59.891Z,5.2
2017-04-17T02:28:02.276Z,5.2
2017-04-17T02:29:04.677Z,5.2
2017-04-17T02:30:07.154Z,5.2
2017-04-17T02:31:09.652Z,5.3
2017-04-17T08:02:54.524Z,10.8
2017-04-17T08:03:58.128Z,9.4
2017-04-17T08:05:00.626Z,8.5
2017-04-17T08:06:03.115Z,8.8
2017-04-17T08:07:05.577Z,8.8
2017-04-17T08:08:08.001Z,8.5
2017-04-17T08:09:10.431Z,8.5
2017-04-17T08:10:12.812Z,8.2
2017-04-17T08:11:15.283Z,8
2017-04-17T08:12:17.987Z,8
2017-04-17T08:13:20.406Z,7.7
2017-04-17T08:14:22.902Z,7.6
2017-04-17T08:15:25.487Z,7.5
2017-04-17T08:16:27.962Z,7.4
2017-04-17T08:17:30.417Z,7.5
2017-04-17T08:18:32.856Z,7.3
2017-04-17T08:19:35.334Z,7.7
2017-04-17T08:20:37.758Z,7.7
2017-04-17T08:21:41.318Z,7.6
2017-04-17T08:22:43.750Z,7.5
2017-04-17T08:23:46.233Z,7.5
2017-04-17T08:24:49.311Z,7.5
2017-04-17T08:25:51.728Z,7.5
2017-04-17T08:26:54.224Z,8.2
2017-04-17T08:27:56.683Z,8.7
2017-04-17T08:28:59.169Z,8.9
2017-04-17T08:30:01.606Z,9.4
2017-04-17T08:31:04.007Z,9
2017-04-17T08:32:06.498Z,8.9
2017-04-17T08:33:08.995Z,8.7
2017-04-17T08:34:11.446Z,9.2
2017-04-17T08:35:13.901Z,8.8
2017-04-17T08:36:16.298Z,8.3
2017-04-17T08:37:19.467Z,8.1
2017-04-17T08:38:21.933Z,7.7
2017-04-17T08:39:24.488Z,8.3
2017-04-17T08:40:26.894Z,8.5
2017-04-17T08:41:29.323Z,8.7
2017-04-17T08:42:31.826Z,8.7
2017-04-17T08:43:34.254Z,8.3
2017-04-17T08:44:36.682Z,8.2
2017-04-17T08:45:39.115Z,8.1
2017-04-17T08:46:41.834Z,7.9
2017-04-17T08:47:44.497Z,7.9
2017-04-17T08:48:46.948Z,7.7
2017-04-17T08:49:49.415Z,7.7
2017-04-17T08:50:51.898Z,8.1
2017-04-17T08:51:54.544Z,8.4
2017-04-17T08:52:57.059Z,8.5
2017-04-17T08:53:59.492Z,8.8
2017-04-17T08:55:01.983Z,8.6
2017-04-17T08:56:04.453Z,8.3
2017-04-17T08:57:06.929Z,8.2
2017-04-17T08:58:09.556Z,8.3
2017-04-17T08:59:12.115Z,8.7
2017-04-17T09:00:15.007Z,8.7
2017-04-17T09:01:18.104Z,8.5
2017-04-17T09:02:20.623Z,8.3
2017-04-17T09:03:23.051Z,8.1
2017-04-17T09:04:26.561Z,8.3
2017-04-17T09:05:29.023Z,8.3
2017-04-17T09:06:31.714Z,8.7
2017-04-17T09:07:34.120Z,9
2017-04-17T09:08:36.611Z,9.5
2017-04-17T09:09:39.116Z,9.7
2017-04-17T09:10:42.014Z,9.8
2017-04-17T09:11:44.796Z,10
2017-04-17T09:12:47.388Z,10.1
2017-04-17T09:13:49.897Z,9.6
2017-04-17T09:14:53.412Z,10.9
2017-04-17T09:15:56.339Z,12.6
2017-04-17T09:16:59.285Z,12.8
2017-04-17T09:18:01.758Z,13.4
2017-04-17T09:19:04.459Z,14.3
2017-04-17T09:20:07.520Z,14.4
2017-04-17T09:21:10.035Z,17.9
2017-04-17T09:22:12.548Z,17.1
2017-04-17T09:23:15.037Z,16.9
2017-04-17T09:24:17.820Z,17.3
2017-04-17T09:25:20.511Z,18.3
2017-04-17T09:26:23.493Z,16.7
2017-04-17T09:27:26.785Z,19.5
2017-04-17T09:28:29.256Z,17.8
2017-04-17T09:29:31.804Z,17.7
2017-04-17T09:30:34.271Z,17.2
2017-04-17T09:31:36.738Z,16.7
2017-04-17T09:32:39.198Z,16.5
2017-04-17T09:33:41.617Z,14.6
2017-04-17T09:34:44.078Z,14.3
2017-04-17T09:35:46.547Z,14.5
2017-04-17T09:36:49.617Z,13.3
2017-04-17T09:37:52.443Z,12.4
2017-04-17T09:38:54.875Z,11.4
2017-04-17T09:39:57.328Z,11
2017-04-17T09:40:59.883Z,10.5
2017-04-17T09:42:02.336Z,10.1
2017-04-17T09:43:04.831Z,10.3
2017-04-17T09:44:07.274Z,11
2017-04-17T09:45:09.729Z,11.3
2017-04-17T09:46:12.156Z,10.4
2017-04-17T09:47:14.633Z,10.7
2017-04-17T09:48:17.078Z,10.6
2017-04-17T09:49:19.604Z,10.8
2017-04-17T09:50:22.126Z,10.1
2017-04-17T09:51:24.587Z,10.6
2017-04-17T09:52:27.056Z,10.1
2017-04-17T09:53:29.496Z,10.1
2017-04-17T09:54:31.948Z,11.2
2017-04-17T09:55:34.462Z,11.9
2017-04-17T09:56:38.600Z,12.1
2017-04-17T09:57:41.142Z,12
2017-04-17T09:58:43.692Z,11.4
2017-04-17T09:59:46.182Z,10.7
2017-04-17T10:00:48.643Z,11.1
2017-04-17T10:01:51.099Z,11.8
2017-04-17T10:02:53.551Z,10.8
2017-04-17T10:03:57.040Z,10.9
2017-04-17T10:04:59.485Z,10.9
2017-04-17T10:06:02.977Z,10.4
2017-04-17T10:07:05.447Z,10.1
2017-04-17T10:08:09.180Z,9.4
2017-04-17T10:09:11.658Z,9.4
2017-04-17T10:10:14.158Z,9
2017-04-17T10:11:16.744Z,8.5
2017-04-17T10:12:19.249Z,8.4
2017-04-17T10:13:21.718Z,8.1
2017-04-17T10:14:24.122Z,7.9
2017-04-17T10:15:26.599Z,8
2017-04-17T10:16:29.053Z,7.9
2017-04-17T10:17:31.516Z,7.5
2017-04-17T10:18:34.012Z,7.2
2017-04-17T10:19:36.586Z,7.6
2017-04-17T10:20:39.081Z,7.6
2017-04-17T10:21:41.579Z,8.2
2017-04-17T10:22:44.098Z,7.7
2017-04-17T10:23:47.546Z,7.7
2017-04-17T10:24:50.090Z,7.8
2017-04-17T10:25:52.619Z,7.7
2017-04-17T10:26:55.169Z,7.8
2017-04-17T10:27:57.739Z,8
2017-04-17T10:29:00.365Z,8.3
2017-04-17T10:30:02.965Z,8.5
2017-04-17T10:31:05.558Z,8.5
2017-04-17T10:32:08.045Z,8.5
2017-04-17T10:33:12.442Z,8.6
2017-04-17T10:34:14.963Z,8.4
2017-04-17T10:35:18.083Z,8.3
2017-04-17T10:36:20.574Z,7.8
2017-04-17T10:37:23.208Z,7.4
2017-04-17T10:38:25.715Z,7.6
2017-04-17T10:39:28.202Z,7.2
2017-04-17T10:40:30.699Z,7
2017-04-17T10:41:33.806Z,7.3
2017-04-17T10:42:36.237Z,7.5
2017-04-17T10:43:38.840Z,7.9
2017-04-17T10:44:41.338Z,7.8
2017-04-17T10:45:44.513Z,8
2017-04-17T10:46:46.975Z,7.8
2017-04-17T10:47:49.473Z,8.6
2017-04-17T10:48:51.956Z,8.9
2017-04-17T10:49:55.384Z,9.1
2017-04-17T10:50:57.831Z,9.4
2017-04-17T10:52:00.394Z,9.4
2017-04-17T10:53:02.953Z,9.4
2017-04-17T10:54:05.386Z,9.5
2017-04-17T10:55:07.912Z,9.8
2017-04-17T10:56:11.220Z,10
2017-04-17T10:57:14.224Z,10.3
2017-04-17T10:58:16.724Z,10
2017-04-17T10:59:19.289Z,10.2
2017-04-17T11:00:21.788Z,10.1
2017-04-17T11:01:24.360Z,10
2017-04-17T11:02:27.650Z,9.5
2017-04-17T11:03:32.441Z,9.8
2017-04-17T11:04:35.089Z,9.8
2017-04-17T11:05:37.782Z,9.4
2017-04-17T11:06:40.896Z,9.6
2017-04-17T11:07:44.098Z,9.5
2017-04-17T11:08:46.714Z,9.1
2017-04-17T11:09:49.429Z,9.1
2017-04-17T11:10:52.056Z,9.1
2017-04-17T11:11:54.672Z,9.4
2017-04-17T11:12:57.323Z,10.1
2017-04-17T11:13:59.906Z,10.5
2017-04-17T11:15:02.575Z,11.1
2017-04-17T11:16:05.193Z,11.4
2017-04-17T11:17:07.781Z,11.9
2017-04-17T11:18:10.463Z,12.8
2017-04-17T11:19:13.449Z,13
2017-04-17T11:20:16.681Z,13
2017-04-17T11:21:19.902Z,13.8
2017-04-17T11:22:23.538Z,13.3
2017-04-17T11:23:26.174Z,14.3
2017-04-17T11:24:29.329Z,14.2
2017-04-17T11:25:31.906Z,15.3
2017-04-17T11:26:34.701Z,14.6
2017-04-17T11:27:37.323Z,14.8
2017-04-17T11:28:40.294Z,14
2017-04-17T11:29:42.875Z,14.4
2017-04-17T11:30:45.628Z,14.3
2017-04-17T11:31:49.275Z,14.7
2017-04-17T11:32:52.397Z,14.9
2017-04-17T11:33:56.354Z,13.8
2017-04-17T11:34:59.142Z,14.4
2017-04-17T11:36:01.766Z,14.3
2017-04-17T11:37:05.375Z,15.2
2017-04-17T11:38:08.013Z,15.4
2017-04-17T11:39:11.306Z,15.8
2017-04-17T11:40:13.937Z,15.1
2017-04-17T11:41:16.861Z,15.5
2017-04-17T11:42:20.446Z,15
2017-04-17T11:43:23.172Z,14.7
2017-04-17T11:44:25.676Z,15.1
2017-04-17T11:45:29.936Z,14.5
2017-04-17T11:46:32.487Z,14.7
2017-04-17T11:47:35.603Z,14.1
2017-04-17T11:48:38.177Z,13.8
2017-04-17T11:49:40.670Z,13.8
2017-04-17T11:50:43.110Z,13.2
2017-04-17T11:51:46.155Z,12.7
2017-04-17T11:52:48.664Z,13.2
2017-04-17T11:53:51.411Z,13.9
2017-04-17T11:54:53.988Z,13.9
2017-04-17T11:55:56.703Z,14
2017-04-17T11:56:59.363Z,14.6
2017-04-17T11:58:02.021Z,14.4
2017-04-17T11:59:04.485Z,14.9
2017-04-17T12:00:07.294Z,14.7
2017-04-17T12:01:09.901Z,14.3
2017-04-17T12:02:12.468Z,14.4
2017-04-17T12:03:15.295Z,14.1
2017-04-17T12:04:17.840Z,13.6
2017-04-17T12:05:26.142Z,13.7
2017-04-17T12:06:31.563Z,13.9
2017-04-17T12:07:34.257Z,14.3
2017-04-17T12:08:36.791Z,14
2017-04-17T12:09:39.833Z,14
2017-04-17T12:10:42.583Z,14.4
2017-04-17T12:11:45.459Z,14
2017-04-17T12:12:50.039Z,14.2
2017-04-17T12:13:52.821Z,14.5
2017-04-17T12:14:55.721Z,14.4
2017-04-17T12:15:58.378Z,14.8
2017-04-17T12:17:01.007Z,13.8
2017-04-17T12:18:03.598Z,13
2017-04-17T12:19:06.058Z,12.1
2017-04-17T12:20:09.465Z,12.1
2017-04-17T12:21:12.526Z,12.6
2017-04-17T12:22:15.104Z,12.2
2017-04-17T12:23:17.654Z,11.8
2017-04-17T12:24:20.285Z,11.3
2017-04-17T12:25:22.937Z,11.5
2017-04-17T12:26:25.376Z,10.8
2017-04-17T12:27:28.546Z,10.9
2017-04-17T12:28:30.981Z,10.8
2017-04-17T12:29:34.671Z,11.1
2017-04-17T12:30:37.132Z,11.5
2017-04-17T12:31:39.593Z,11.3
2017-04-17T12:32:44.141Z,11.5
2017-04-17T12:33:46.569Z,12
2017-04-17T12:34:49.081Z,12.4
2017-04-17T12:35:51.821Z,12.9
2017-04-17T12:36:55.646Z,13.1
2017-04-17T12:37:58.671Z,13.1
2017-04-17T12:39:01.832Z,13.6
2017-04-17T12:40:04.977Z,13.6
2017-04-17T12:41:07.579Z,13.9
2017-04-17T12:42:10.124Z,13.9
2017-04-17T12:43:12.581Z,13.8
2017-04-17T12:44:15.172Z,14
2017-04-17T12:45:18.322Z,14.2
2017-04-17T12:46:21.311Z,14.4
2017-04-17T12:47:24.086Z,14.6
2017-04-17T12:48:26.749Z,14
2017-04-17T12:49:30.500Z,14.1
2017-04-17T12:50:32.926Z,14.4
2017-04-17T12:51:35.401Z,14.1
2017-04-17T12:52:38.373Z,14
2017-04-17T12:53:40.829Z,14
2017-04-17T12:54:43.265Z,13.3
2017-04-17T12:55:45.807Z,13.7
2017-04-17T12:56:48.313Z,13.1
2017-04-17T12:57:50.802Z,13.5
2017-04-17T12:58:53.293Z,13.9
2017-04-17T12:59:55.776Z,14
2017-04-17T13:00:58.517Z,14.4
2017-04-17T13:02:00.969Z,14.4
2017-04-17T13:03:03.423Z,14.2
2017-04-17T13:04:05.935Z,14.2
2017-04-17T13:05:08.453Z,13.6
2017-04-17T13:06:10.961Z,13.3
2017-04-17T13:07:13.470Z,13
2017-04-17T13:08:15.958Z,13.4
2017-04-17T13:09:18.446Z,13.2
2017-04-17T13:10:20.922Z,12.7
2017-04-17T13:11:24.099Z,12.2
2017-04-17T13:12:26.592Z,12
2017-04-17T13:13:29.050Z,12.4
2017-04-17T13:14:31.549Z,12.4
2017-04-17T13:15:35.463Z,12.9
2017-04-17T13:16:37.987Z,13.3
2017-04-17T13:17:40.459Z,13.3
2017-04-17T13:18:42.928Z,13.4
2017-04-17T13:19:45.400Z,13.3
2017-04-17T13:20:47.842Z,13.3
2017-04-17T13:21:50.322Z,13.2
2017-04-17T13:22:52.786Z,13.3
2017-04-17T13:23:55.289Z,13.6
2017-04-17T13:24:57.714Z,14.1
2017-04-17T13:26:00.185Z,14.1
2017-04-17T13:27:02.653Z,14.1
2017-04-17T13:28:05.709Z,14
2017-04-17T13:29:08.484Z,13.7
2017-04-17T13:30:11.023Z,13.4
2017-04-17T13:31:13.966Z,13.4
2017-04-17T13:32:16.544Z,13.4
2017-04-17T13:33:19.043Z,13.3
2017-04-17T13:34:21.589Z,12.7
2017-04-17T13:35:24.917Z,12.5
2017-04-17T13:36:27.974Z,12.4
2017-04-17T13:37:32.676Z,12.5
2017-04-17T13:38:35.141Z,11.9
2017-04-17T13:39:37.652Z,11.5
2017-04-17T13:40:40.168Z,11.2
2017-04-17T13:41:42.659Z,11
2017-04-17T13:42:45.879Z,10.8
2017-04-17T13:43:48.475Z,10.6
2017-04-17T13:44:50.909Z,10.4
2017-04-17T13:45:53.312Z,10
2017-04-17T13:46:55.737Z,9.6
2017-04-17T13:47:58.861Z,10.1
2017-04-17T13:49:01.317Z,10.3
2017-04-17T13:50:03.797Z,10.4
2017-04-17T13:51:06.283Z,10.5
2017-04-17T13:52:08.787Z,10.2
2017-04-17T13:53:11.324Z,10.4
2017-04-17T13:54:14.115Z,10
2017-04-17T13:55:17.564Z,9.8
2017-04-17T13:56:20.995Z,9.9
2017-04-17T13:57:23.545Z,9.7
2017-04-17T13:58:26.689Z,9.6
2017-04-17T13:59:30.931Z,9.8
2017-04-17T14:00:33.561Z,9.1
2017-04-17T14:01:36.241Z,9.2
2017-04-17T14:02:39.655Z,9.8
2017-04-17T14:03:42.229Z,9.7
2017-04-17T14:04:44.670Z,9.8
2017-04-17T14:05:47.178Z,9.5
2017-04-17T14:06:49.697Z,9.9
2017-04-17T14:07:52.128Z,9.9
2017-04-17T14:08:54.639Z,10
2017-04-17T14:09:57.118Z,10
2017-04-17T14:11:00.275Z,10.6
2017-04-17T14:12:03.312Z,11
2017-04-17T14:13:06.800Z,11.1
2017-04-17T14:14:09.307Z,11.4
2017-04-17T14:15:11.794Z,11.4
2017-04-17T14:16:14.252Z,11.3
2017-04-17T14:17:18.016Z,10.9
2017-04-17T14:18:20.478Z,11.5
2017-04-17T14:19:23.023Z,11.8
2017-04-17T14:20:25.533Z,11.2
2017-04-17T14:21:28.031Z,11.3
2017-04-17T14:22:30.541Z,11.3
2017-04-17T14:23:33.621Z,11.3
2017-04-17T14:24:36.174Z,11.1
2017-04-17T14:25:38.649Z,11.4
2017-04-17T14:26:41.111Z,11.4
2017-04-17T14:27:43.622Z,11.4
2017-04-17T14:28:46.092Z,11.3
2017-04-17T14:29:48.557Z,11.5
2017-04-17T14:30:51.077Z,11.3
2017-04-17T14:31:54.168Z,11.2
2017-04-17T14:32:56.621Z,11.2
2017-04-17T14:33:59.806Z,10.7
2017-04-17T14:35:02.393Z,10.8
2017-04-17T14:36:05.587Z,9.9
2017-04-17T14:37:08.130Z,10
2017-04-17T14:38:10.612Z,9.5
2017-04-17T14:39:14.326Z,9.2
2017-04-17T14:40:17.723Z,9.1
2017-04-17T14:41:21.388Z,9.1
2017-04-17T14:42:24.850Z,8.8
2017-04-17T14:43:27.913Z,7.7
2017-04-17T14:44:30.376Z,7.8
2017-04-17T14:45:32.909Z,7.7
2017-04-17T14:46:35.372Z,8.3
2017-04-17T14:47:37.920Z,8.2
2017-04-17T14:48:40.434Z,8.4
2017-04-17T14:49:42.965Z,8.2
2017-04-17T14:50:46.531Z,8.6
2017-04-17T14:51:49.028Z,8.8
2017-04-17T14:52:51.606Z,8.7
2017-04-17T14:53:54.378Z,8.6
2017-04-17T14:54:56.893Z,9
2017-04-17T14:55:59.413Z,9.3
2017-04-17T14:57:02.564Z,9.6
2017-04-17T14:58:07.142Z,9.9
2017-04-17T14:59:10.734Z,9.8
2017-04-17T15:00:13.653Z,10.3
2017-04-17T15:01:16.148Z,10.4
2017-04-17T15:02:19.284Z,10.4
2017-04-17T15:03:21.917Z,10.4
2017-04-17T15:04:24.521Z,10.1
2017-04-17T15:05:27.107Z,10.2
2017-04-17T15:06:30.387Z,9.6
2017-04-17T15:07:33.031Z,9.5
2017-04-17T15:08:35.728Z,9.2
2017-04-17T15:09:38.424Z,9.8
2017-04-17T15:10:40.996Z,10
2017-04-17T15:11:44.185Z,9.9
2017-04-17T15:12:46.687Z,10.3
2017-04-17T15:13:49.189Z,10.5
2017-04-17T15:14:51.796Z,10.4
2017-04-17T15:15:54.506Z,10.4
2017-04-17T15:16:56.971Z,10.3
2017-04-17T15:17:59.528Z,10.5
2017-04-17T15:19:02.002Z,10.6
2017-04-17T15:20:04.492Z,10.6
2017-04-17T15:21:07.014Z,10.7
2017-04-17T15:22:10.017Z,10.9
2017-04-17T15:23:13.160Z,10.7
2017-04-17T15:24:15.650Z,10.8
2017-04-17T15:25:18.181Z,10.4
2017-04-17T15:26:20.656Z,10.6
2017-04-17T15:27:23.216Z,10.6
2017-04-17T15:28:25.704Z,10.4
2017-04-17T15:29:29.188Z,10.4
2017-04-17T15:30:32.353Z,10.7
2017-04-17T15:31:34.878Z,10.5
2017-04-17T15:32:37.697Z,10.6
2017-04-17T15:33:40.285Z,10.6
2017-04-17T15:34:42.889Z,10.4
2017-04-17T15:35:45.383Z,10.4
2017-04-17T15:36:48.622Z,10.8
2017-04-17T15:37:51.169Z,11
2017-04-17T15:38:53.788Z,11.4
2017-04-17T15:39:56.321Z,11.6
2017-04-17T15:40:59.001Z,11.8
2017-04-17T15:42:01.580Z,11.7
2017-04-17T15:43:04.216Z,11.6
2017-04-17T15:44:06.784Z,11.6
2017-04-17T15:45:09.553Z,11.3
2017-04-17T15:46:12.144Z,11.3
2017-04-17T15:47:14.982Z,11.2
2017-04-17T15:48:17.625Z,11.1
2017-04-17T15:49:20.528Z,10.7
2017-04-17T15:50:24.529Z,10.7
2017-04-17T15:51:27.186Z,10.3
2017-04-17T15:52:32.375Z,10.1
2017-04-17T15:53:36.002Z,9.8
2017-04-17T15:54:38.652Z,10
2017-04-17T15:55:41.966Z,9.4
2017-04-17T15:56:44.797Z,9.3
2017-04-17T15:57:47.602Z,9.5
2017-04-17T15:58:53.029Z,9.8
2017-04-17T15:59:55.518Z,9.5
2017-04-17T16:00:58.074Z,9.2
2017-04-17T16:02:00.524Z,9.2
2017-04-17T16:03:03.736Z,9.7
2017-04-17T16:04:06.242Z,9.8
2017-04-17T16:05:09.715Z,9.9
2017-04-17T16:06:12.186Z,9.6
2017-04-17T16:07:14.628Z,9.6
2017-04-17T16:08:17.220Z,9.6
2017-04-17T16:09:19.752Z,9.5
2017-04-17T16:10:22.474Z,9.7
2017-04-17T16:11:25.469Z,9.6
2017-04-17T16:12:27.909Z,9.1
2017-04-17T16:13:30.402Z,9.3
2017-04-17T16:14:32.905Z,9.2
2017-04-17T16:15:35.345Z,8.8
2017-04-17T16:16:37.854Z,8.6
2017-04-17T16:17:40.279Z,8.5
2017-04-17T16:18:43.396Z,8.5
2017-04-17T16:19:46.097Z,8.1
2017-04-17T16:20:48.558Z,8.1
2017-04-17T16:21:51.058Z,7.7
2017-04-17T16:22:54.093Z,7.7
2017-04-17T16:23:56.562Z,7.6
2017-04-17T16:24:59.102Z,7.5
2017-04-17T16:26:02.191Z,7.6
2017-04-17T16:27:04.706Z,7.5
2017-04-17T16:28:07.180Z,7.2
2017-04-17T16:29:09.653Z,7.2
2017-04-17T16:30:13.620Z,7
2017-04-17T16:31:16.104Z,7.2
2017-04-17T16:32:19.212Z,6.9
2017-04-17T16:33:21.705Z,6.8
2017-04-17T16:34:25.258Z,7.1
2017-04-17T16:35:27.688Z,7.2
2017-04-17T16:36:30.820Z,7.2
2017-04-17T16:37:33.274Z,6.9
2017-04-17T16:38:36.356Z,6.9
2017-04-17T16:39:40.194Z,6.7
2017-04-17T16:40:42.666Z,6.9
2017-04-17T16:41:45.742Z,7
2017-04-17T16:42:48.468Z,6.8
2017-04-17T16:43:51.138Z,6.2
2017-04-17T16:44:53.626Z,6.5
2017-04-17T16:45:56.849Z,6.6
2017-04-17T16:47:00.138Z,6.7
2017-04-17T16:48:03.595Z,6.8
2017-04-17T16:49:06.529Z,7
2017-04-17T16:50:09.006Z,7
2017-04-17T16:51:11.460Z,7
2017-04-17T16:52:13.949Z,6.8
2017-04-17T16:53:16.419Z,6.8
2017-04-17T16:54:18.972Z,7
2017-04-17T16:55:21.971Z,7.1
2017-04-17T16:56:25.069Z,7.1
2017-04-17T16:57:27.544Z,7.3
2017-04-17T16:58:30.020Z,7.1
2017-04-17T16:59:32.578Z,7.2
2017-04-17T17:00:35.622Z,7.2
2017-04-17T17:01:38.787Z,7.2
2017-04-17T17:02:41.305Z,7.2
2017-04-17T17:03:43.799Z,7.1
2017-04-17T17:04:46.205Z,7.2
2017-04-17T17:05:48.714Z,7.2
2017-04-17T17:06:51.821Z,6.9
2017-04-17T17:07:54.347Z,6.8
2017-04-17T17:08:56.845Z,7
2017-04-17T17:09:59.524Z,7.3
2017-04-17T17:11:02.067Z,7.4
2017-04-17T17:12:05.731Z,7.5
2017-04-17T17:13:08.311Z,7.4
2017-04-17T17:14:10.865Z,7.5
2017-04-17T17:15:13.333Z,7.4
2017-04-17T17:16:15.854Z,7.4
2017-04-17T17:17:18.673Z,7.5
2017-04-17T17:18:22.268Z,7.5
2017-04-17T17:19:24.762Z,7
2017-04-17T17:20:27.999Z,7.2
2017-04-17T17:21:31.970Z,7.1
2017-04-17T17:22:34.424Z,7.2
2017-04-17T17:23:36.864Z,6.9
2017-04-17T17:24:39.309Z,6.5
2017-04-17T17:25:41.869Z,6.1
2017-04-17T17:26:45.113Z,6.1
2017-04-17T17:27:48.607Z,6.1
2017-04-17T17:28:51.689Z,6.4
2017-04-17T17:29:54.256Z,6.1
2017-04-17T17:30:56.781Z,6.4
2017-04-17T17:31:59.685Z,6.4
2017-04-17T17:33:03.405Z,6.8
2017-04-17T17:34:05.882Z,6.7
2017-04-17T17:35:08.571Z,6.6
2017-04-17T17:36:11.761Z,6.6
2017-04-17T17:37:16.218Z,6.6
2017-04-17T17:38:19.349Z,6.3
2017-04-17T17:39:22.181Z,5.8
2017-04-17T17:40:25.893Z,5.9
2017-04-17T17:41:28.417Z,6.1
2017-04-17T17:42:30.832Z,6.1
2017-04-17T17:43:33.305Z,6.2
2017-04-17T17:44:35.799Z,6.2
2017-04-17T17:45:38.343Z,6.6
2017-04-17T17:46:40.838Z,6.5
2017-04-17T17:47:44.006Z,6.8
2017-04-17T17:48:46.489Z,6.9
2017-04-17T17:49:49.024Z,6.6
2017-04-17T17:50:51.465Z,6.1
2017-04-17T17:51:53.981Z,6
2017-04-17T17:52:56.451Z,6
2017-04-17T17:53:58.987Z,5.9
2017-04-17T17:55:01.611Z,5.9
2017-04-17T17:56:04.079Z,6
2017-04-17T17:57:06.529Z,6
2017-04-17T17:58:09.050Z,6
2017-04-17T17:59:11.612Z,5.9
2017-04-17T18:00:15.145Z,6
2017-04-17T18:01:18.177Z,6
2017-04-17T18:02:20.680Z,6.1
2017-04-17T18:03:23.119Z,6.2
2017-04-17T18:04:25.587Z,6.1
2017-04-17T18:05:28.101Z,6.2
2017-04-17T18:06:30.616Z,6.1
2017-04-17T18:07:33.900Z,6.1
2017-04-17T18:08:36.362Z,5.7
2017-04-17T18:09:38.850Z,5.8
2017-04-17T18:10:41.332Z,5.9
2017-04-17T18:11:43.788Z,5.9
2017-04-17T18:12:47.271Z,5.7
2017-04-17T18:13:53.608Z,5.7
2017-04-17T18:14:56.280Z,5.8
2017-04-17T18:15:58.749Z,5.7
2017-04-17T18:17:01.302Z,5.7
2017-04-17T18:18:03.868Z,5.6
2017-04-17T18:19:06.360Z,5.5
2017-04-17T18:20:08.871Z,5.5
2017-04-17T18:21:12.040Z,5.4
2017-04-17T18:22:14.533Z,5.4
2017-04-17T18:23:17.016Z,5.3
2017-04-17T18:24:19.522Z,5.4
2017-04-17T18:25:22.116Z,5.1
2017-04-17T18:26:24.604Z,5.2
2017-04-17T18:27:27.088Z,5.1
2017-04-17T18:28:29.780Z,5.1
2017-04-17T18:29:32.863Z,5.1
2017-04-17T18:30:35.361Z,5.1
2017-04-17T18:31:37.844Z,5
2017-04-17T18:32:40.396Z,5
2017-04-17T18:33:43.608Z,5
2017-04-17T18:34:46.105Z,5.1
2017-04-17T18:35:49.799Z,5
2017-04-17T18:36:52.312Z,4.9
2017-04-17T18:37:54.814Z,4.9
2017-04-17T18:38:59.288Z,4.9
2017-04-17T18:40:01.740Z,5
2017-04-17T18:41:04.203Z,5
2017-04-17T18:42:07.436Z,5.1
2017-04-17T18:43:09.967Z,5.2
2017-04-17T18:44:12.437Z,5.1
2017-04-17T18:45:16.774Z,5.2
2017-04-17T18:46:19.478Z,5.4
2017-04-17T18:47:21.982Z,5.5
2017-04-17T18:48:24.417Z,5.2
2017-04-17T18:49:26.905Z,5.4
2017-04-17T18:50:29.410Z,5.5
2017-04-17T18:51:31.918Z,5.2
2017-04-17T18:52:34.440Z,4.9
2017-04-17T18:53:36.987Z,5.3
2017-04-17T18:54:39.798Z,5.2
2017-04-17T19:28:39.305Z,5
2017-04-17T19:29:43.857Z,5
2017-04-17T19:30:47.088Z,5.1
2017-04-17T19:31:49.766Z,5.1
2017-04-17T19:32:52.656Z,4.9
2017-04-17T19:33:55.438Z,4.5
2017-04-17T19:34:59.076Z,4.5
2017-04-17T19:36:02.352Z,4.1
2017-04-17T19:37:04.936Z,4
2017-04-17T19:38:08.080Z,4
2017-04-17T19:39:10.683Z,3.3
2017-04-17T19:40:13.818Z,3.6
2017-04-17T19:41:16.493Z,3.5
2017-04-17T19:42:20.216Z,3.4
2017-04-17T19:43:22.968Z,3.4
2017-04-17T19:44:25.801Z,3.7
2017-04-17T19:45:29.071Z,3.5
2017-04-17T19:46:31.882Z,3.5
2017-04-17T19:47:38.858Z,3.7
2017-04-17T19:48:42.068Z,3.4
2017-04-17T19:49:46.437Z,3.7
2017-04-17T19:50:49.170Z,3.6
2017-04-17T19:51:53.472Z,3.8
2017-04-17T19:52:56.819Z,3.9
2017-04-17T19:53:59.566Z,4
2017-04-17T19:55:03.501Z,4
2017-04-17T19:56:08.029Z,4.1
2017-04-17T19:57:10.633Z,3.7
2017-04-17T19:58:14.003Z,4.1
2017-04-17T19:59:22.405Z,4.1
2017-04-17T20:00:25.333Z,4.1
2017-04-17T20:01:28.088Z,4.1
2017-04-17T20:02:30.731Z,4.2
2017-04-17T20:03:33.319Z,4.1
2017-04-17T20:04:36.614Z,4
2017-04-17T20:05:39.208Z,4.1
2017-04-17T20:06:43.658Z,4
2017-04-17T20:07:47.036Z,3.8
2017-04-17T20:08:49.669Z,4
2017-04-17T20:09:52.458Z,4.1
2017-04-17T20:10:55.079Z,4
2017-04-17T20:11:58.392Z,4.1
2017-04-17T20:13:00.968Z,4.1
2017-04-17T20:14:03.629Z,4.3
2017-04-17T20:15:06.341Z,4
2017-04-17T20:16:09.707Z,4.1
2017-04-17T20:17:12.323Z,4.4
2017-04-17T20:18:15.005Z,4.2
2017-04-17T20:19:19.895Z,4
2017-04-17T20:20:22.738Z,3.9
2017-04-17T20:21:25.310Z,4
2017-04-17T20:22:28.828Z,4.1
2017-04-17T20:23:31.971Z,4.1